createdAt,value
2023-07-02T00:03:54.505Z,17.2
2023-07-02T00:13:54.659Z,17.2
2023-07-02T00:23:54.844Z,17.2
2023-07-02T00:33:55.031Z,17.3
2023-07-02T00:43:55.215Z,17.3
2023-07-02T00:53:55.417Z,17.2
2023-07-02T01:03:55.598Z,17.1
2023-07-02T01:23:56.009Z,17
2023-07-02T01:33:56.202Z,17
2023-07-02T01:43:56.407Z,17
2023-07-02T01:53:56.700Z,17
2023-07-02T02:03:56.793Z,17
2023-07-02T02:13:56.982Z,16.9
2023-07-02T02:23:57.182Z,16.9
2023-07-02T02:33:57.385Z,17
2023-07-02T02:43:57.577Z,17
2023-07-02T02:53:57.761Z,17
2023-07-02T03:03:58.039Z,16.9
2023-07-02T03:13:58.164Z,16.7
2023-07-02T03:23:58.368Z,16.7
2023-07-02T03:33:58.558Z,16.6
2023-07-02T03:43:58.749Z,16.4
2023-07-02T03:53:58.954Z,16.3
2023-07-02T04:13:59.396Z,16.4
2023-07-02T04:23:59.546Z,16.4
2023-07-02T04:33:59.750Z,16.4
2023-07-02T04:43:59.909Z,16.3
2023-07-02T04:54:00.122Z,16.6
2023-07-02T05:14:00.518Z,16.8
2023-07-02T05:34:00.947Z,17.2
2023-07-02T05:54:01.293Z,18.1
2023-07-02T06:24:01.887Z,18.5
2023-07-02T06:34:02.083Z,18.5
2023-07-02T07:04:02.699Z,19.2
2023-07-02T07:14:02.880Z,18.9
2023-07-02T07:24:03.044Z,18.8
2023-07-02T07:34:03.243Z,18.6
2023-07-02T07:44:03.478Z,18.6
2023-07-02T07:54:03.633Z,19
2023-07-02T08:14:04.010Z,19.6
2023-07-02T08:24:04.220Z,19.4
2023-07-02T08:34:04.410Z,20
2023-07-02T08:54:04.786Z,19.7
2023-07-02T09:04:05.061Z,19.3
2023-07-02T09:14:05.179Z,19.4
2023-07-02T09:24:05.389Z,20
2023-07-02T09:34:05.665Z,20.9
2023-07-02T09:44:05.818Z,21.2
2023-07-02T10:04:06.181Z,19.8
2023-07-02T10:14:06.366Z,20.3
2023-07-02T10:24:06.549Z,20.6
2023-07-02T10:34:06.769Z,21.2
2023-07-02T10:44:06.934Z,21.8
2023-07-02T10:54:07.145Z,21.5
2023-07-02T11:04:07.346Z,21.6
2023-07-02T11:14:07.530Z,21.8
2023-07-02T11:24:07.724Z,21.9
2023-07-02T11:34:07.910Z,22.2
2023-07-02T11:54:08.343Z,22
2023-07-02T12:04:08.588Z,22.3
2023-07-02T12:14:08.702Z,22.2
2023-07-02T12:24:08.895Z,22.3
2023-07-02T12:34:09.095Z,21.6
2023-07-02T12:44:09.294Z,22
2023-07-02T12:54:09.477Z,22.2
2023-07-02T13:04:09.803Z,21.3
2023-07-02T13:14:09.888Z,22.1
2023-07-02T13:24:10.064Z,22
2023-07-02T13:34:10.278Z,21.5
2023-07-02T13:44:10.528Z,21.2
2023-07-02T14:04:10.885Z,21.9
2023-07-02T14:14:11.028Z,22.2
2023-07-02T14:24:11.256Z,22.3
2023-07-02T14:34:11.442Z,22.2
2023-07-02T14:44:11.627Z,22.2
2023-07-02T14:54:11.847Z,22.2
2023-07-02T15:04:12.250Z,22
2023-07-02T15:14:12.205Z,21.7
2023-07-02T15:24:12.406Z,21.7
2023-07-02T15:34:12.588Z,22
2023-07-02T15:54:12.989Z,21.8
2023-07-02T16:04:13.306Z,21.9
2023-07-02T16:14:13.386Z,22
2023-07-02T16:44:13.968Z,22.1
2023-07-02T16:54:14.163Z,21.6
2023-07-02T17:04:14.375Z,21.2
2023-07-02T17:14:14.569Z,21
2023-07-02T17:24:14.758Z,20.8
2023-07-02T17:34:14.944Z,20.8
2023-07-02T17:54:15.355Z,20.5
2023-07-02T18:04:15.603Z,20.2
2023-07-02T18:14:15.729Z,19.7
2023-07-02T18:24:15.903Z,19.5
2023-07-02T18:34:16.116Z,19.4
2023-07-02T18:44:16.314Z,19.3
2023-07-02T18:54:16.509Z,19.3
2023-07-02T19:04:16.777Z,19.2
2023-07-02T19:14:16.891Z,19.2
2023-07-02T19:24:17.089Z,19
2023-07-02T19:34:17.288Z,18.9
2023-07-02T19:44:17.488Z,18.8
2023-07-02T19:54:17.699Z,18.6
2023-07-02T20:04:18.004Z,18.5
2023-07-02T20:14:18.064Z,18.3
2023-07-02T20:24:18.252Z,18.3
2023-07-02T20:34:18.457Z,18.3
2023-07-02T20:44:18.654Z,18.3
2023-07-02T20:54:18.836Z,18.1
2023-07-02T21:04:19.073Z,18
2023-07-02T21:14:19.237Z,17.8
2023-07-02T21:24:19.439Z,17.7
2023-07-02T21:34:19.633Z,17.4
2023-07-02T21:44:19.845Z,17.3
2023-07-02T21:54:20.071Z,17.2
2023-07-02T22:04:20.237Z,17.1
2023-07-02T22:14:20.408Z,17
2023-07-02T22:24:20.608Z,17.1
2023-07-02T22:34:20.786Z,17.1
2023-07-02T22:44:20.997Z,16.9
2023-07-02T22:54:21.178Z,16.8
2023-07-02T23:04:21.475Z,16.7
2023-07-02T23:14:21.577Z,16.8
2023-07-02T23:24:21.767Z,16.7
2023-07-02T23:34:21.979Z,16.6
2023-07-02T23:44:22.154Z,16.5
2023-07-02T23:54:22.344Z,16.3
